Time;durP1;ratioP1;P1;durP2;ratioP2;P2;SDS_P1;SDS_P2;PMS_P1;PMS_P2;Temp;Humidity;BMP_temperature;BMP_pressure;BME280_temperature;BME280_humidity;BME280_pressure;Samples;Min_cycle;Max_cycle;Signal;HPM_P1;HPM_P2
2022/11/07 00:01:18;;;;;;;17.87;7.55;;;;;;;16.39;60.18;98286.16;4487482;31;20103;-79
2022/11/07 00:03:44;;;;;;;15.00;6.57;;;;;;;16.78;58.79;98280.19;4487468;31;20072;-79
2022/11/07 00:06:11;;;;;;;17.87;6.95;;;;;;;15.45;62.82;98288.34;4486852;31;20096;-79
2022/11/07 00:08:38;;;;;;;18.12;7.47;;;;;;;16.04;61.18;98285.69;4486275;31;20569;-80
2022/11/07 00:11:05;;;;;;;18.40;8.18;;;;;;;16.33;60.63;98287.34;4486959;31;20092;-80
2022/11/07 00:13:32;;;;;;;16.95;7.78;;;;;;;16.56;60.11;98283.31;4487399;31;20103;-79
2022/11/07 00:16:01;;;;;;;19.23;7.47;;;;;;;16.85;59.00;98280.66;4487143;31;20111;-79
2022/11/07 00:18:28;;;;;;;15.68;7.35;;;;;;;16.97;58.30;98272.88;4487056;31;20096;-80
2022/11/07 00:20:55;;;;;;;19.50;7.70;;;;;;;16.77;58.36;98274.16;4487370;31;20145;-79
2022/11/07 00:23:22;;;;;;;24.92;7.75;;;;;;;17.11;56.88;98279.78;4487277;31;20084;-79
2022/11/07 00:25:48;;;;;;;19.55;7.53;;;;;;;16.41;59.55;98273.88;4486854;31;20092;-80
2022/11/07 00:28:15;;;;;;;17.25;7.20;;;;;;;16.82;58.57;98267.81;4487028;31;20104;-80
2022/11/07 00:30:42;;;;;;;20.55;9.05;;;;;;;16.22;59.82;98274.16;4486652;32;20095;-79
2022/11/07 00:33:09;;;;;;;18.33;7.50;;;;;;;16.79;58.60;98271.44;4486818;31;20081;-79
2022/11/07 00:35:42;;;;;;;16.85;7.20;;;;;;;17.34;56.28;98281.72;4487030;31;20104;-80
2022/11/07 00:38:09;;;;;;;18.23;7.80;;;;;;;16.87;58.01;98283.97;4487266;31;20105;-79
2022/11/07 00:40:36;;;;;;;20.02;8.63;;;;;;;17.29;57.43;98285.56;4486611;31;20443;-80
2022/11/07 00:43:03;;;;;;;20.45;7.85;;;;;;;17.04;57.76;98286.34;4486972;31;20344;-80
2022/11/07 00:45:29;;;;;;;20.27;8.20;;;;;;;17.05;57.79;98294.06;4486827;31;20367;-79
2022/11/07 00:47:56;;;;;;;19.02;8.30;;;;;;;17.31;57.43;98296.72;4486605;32;20112;-79
2022/11/07 00:50:23;;;;;;;18.17;8.27;;;;;;;17.83;55.04;98295.88;4486868;31;20103;-79
2022/11/07 00:52:50;;;;;;;19.05;8.70;;;;;;;17.40;56.60;98292.66;4486923;31;20107;-79
2022/11/07 00:55:17;;;;;;;21.77;8.93;;;;;;;17.48;56.26;98287.78;4486419;31;20451;-79
2022/11/07 00:57:44;;;;;;;19.40;9.02;;;;;;;17.45;56.55;98288.84;4486957;31;20359;-79
2022/11/07 01:00:11;;;;;;;18.25;9.25;;;;;;;17.73;55.79;98290.44;4486375;31;20353;-80
2022/11/07 01:02:38;;;;;;;20.33;8.32;;;;;;;17.60;55.94;98289.56;4485546;32;20069;-80
2022/11/07 01:05:11;;;;;;;21.08;9.48;;;;;;;17.32;56.74;98291.41;4486600;31;20131;-79
2022/11/07 01:07:38;;;;;;;22.58;8.77;;;;;;;16.68;59.11;98289.53;4486384;31;20104;-80
2022/11/07 01:10:06;;;;;;;20.17;8.73;;;;;;;17.91;54.88;98290.97;4485424;32;20092;-79
2022/11/07 01:12:34;;;;;;;21.02;9.05;;;;;;;16.83;58.02;98288.56;4486623;31;20068;-79
2022/11/07 01:15:04;;;;;;;20.20;8.85;;;;;;;16.92;58.08;98287.97;4486160;31;20100;-79
2022/11/07 01:17:31;;;;;;;23.05;9.70;;;;;;;16.23;61.16;98286.25;4486571;31;20092;-79
2022/11/07 01:19:58;;;;;;;18.40;8.93;;;;;;;16.73;59.41;98295.31;4487560;31;20088;-79
2022/11/07 01:22:25;;;;;;;20.55;9.48;;;;;;;17.24;57.29;98296.31;4487080;32;20454;-79
2022/11/07 01:24:52;;;;;;;20.05;8.85;;;;;;;17.42;56.82;98294.25;4488475;31;20451;-79
2022/11/07 01:27:19;;;;;;;21.35;9.25;;;;;;;17.14;57.76;98302.22;4488597;31;20737;-79
2022/11/07 01:29:45;;;;;;;20.98;9.32;;;;;;;17.97;54.88;98307.97;4487881;31;20084;-79
2022/11/07 01:32:12;;;;;;;21.70;8.93;;;;;;;18.41;53.21;98312.75;4488647;31;20072;-79
2022/11/07 01:34:39;;;;;;;19.92;8.45;;;;;;;17.58;55.60;98309.72;4488401;31;20131;-79
2022/11/07 01:37:06;;;;;;;20.88;9.13;;;;;;;18.18;54.06;98307.34;4488082;31;20091;-79
2022/11/07 01:39:33;;;;;;;18.00;8.40;;;;;;;17.51;55.89;98311.88;4488408;31;20095;-79
2022/11/07 01:42:00;;;;;;;20.55;9.18;;;;;;;17.58;55.95;98305.34;4488472;31;20201;-80
2022/11/07 01:44:27;;;;;;;21.60;9.60;;;;;;;17.54;56.17;98309.06;4488254;31;20141;-79
2022/11/07 01:46:56;;;;;;;19.95;8.30;;;;;;;17.47;56.14;98305.22;4488477;31;20787;-79
2022/11/07 01:49:35;;;;;;;20.20;9.00;;;;;;;17.41;56.40;98303.00;4486911;32;20119;-80
2022/11/07 01:52:11;;;;;;;18.48;8.23;;;;;;;17.20;57.06;98304.41;4487319;32;20072;-79
2022/11/07 01:54:48;;;;;;;20.35;8.70;;;;;;;17.51;56.25;98298.00;4488268;31;20126;-79
2022/11/07 01:57:38;;;;;;;19.37;8.38;;;;;;;17.10;57.83;98303.34;4488035;31;20084;-79
2022/11/07 02:00:08;;;;;;;16.85;8.15;;;;;;;16.89;58.21;98288.16;4488220;32;20497;-80
2022/11/07 02:02:36;;;;;;;22.90;8.98;;;;;;;16.55;59.50;98288.63;4488299;31;20414;-79
2022/11/07 02:05:04;;;;;;;18.85;8.35;;;;;;;16.60;59.65;98282.19;4487817;31;20104;-79
2022/11/07 02:07:31;;;;;;;21.40;8.93;;;;;;;16.33;60.04;98281.31;4488373;31;20111;-79
2022/11/07 02:09:58;;;;;;;21.55;9.02;;;;;;;16.34;60.35;98285.59;4488090;31;20092;-79
2022/11/07 02:12:26;;;;;;;19.23;8.05;;;;;;;16.82;58.58;98293.87;4488036;31;20080;-79
2022/11/07 02:14:54;;;;;;;22.45;8.75;;;;;;;16.46;59.76;98293.47;4488064;32;20115;-79
2022/11/07 02:17:21;;;;;;;18.00;8.30;;;;;;;16.24;60.99;98287.91;4486788;32;20095;-79
2022/11/07 02:19:53;;;;;;;23.70;10.07;;;;;;;15.67;63.37;98287.09;4488150;31;20088;-79
2022/11/07 02:22:49;;;;;;;21.15;9.40;;;;;;;15.15;65.72;98274.50;4488306;31;20134;-79
2022/11/07 02:25:18;;;;;;;19.60;8.75;;;;;;;15.36;65.02;98265.47;4486562;32;20112;-79
2022/11/07 02:27:47;;;;;;;20.25;9.23;;;;;;;15.74;63.19;98271.03;4488185;31;20087;-79
2022/11/07 02:30:17;;;;;;;21.67;8.75;;;;;;;15.98;62.35;98273.06;4486232;32;20145;-79
2022/11/07 02:32:45;;;;;;;19.15;9.40;;;;;;;16.35;61.18;98277.66;4486257;32;20069;-79
2022/11/07 02:35:30;;;;;;;19.30;8.52;;;;;;;16.29;61.23;98274.62;4487927;31;20104;-79
2022/11/07 02:37:57;;;;;;;21.08;9.23;;;;;;;15.88;61.38;98265.81;4488135;31;20096;-79
2022/11/07 02:40:24;;;;;;;22.67;9.68;;;;;;;16.11;61.18;98256.59;4486534;32;20103;-79
2022/11/07 02:42:51;;;;;;;20.33;8.60;;;;;;;16.87;58.64;98252.72;4487951;31;20084;-79
2022/11/07 02:45:22;;;;;;;21.12;8.07;;;;;;;16.99;57.29;98250.13;4487532;31;20108;-80
2022/11/07 02:47:49;;;;;;;16.62;8.43;;;;;;;17.32;55.37;98249.66;4486831;32;20104;-79
2022/11/07 02:50:16;;;;;;;22.58;9.05;;;;;;;16.84;56.15;98256.34;4487889;31;20093;-79
2022/11/07 02:52:43;;;;;;;21.10;8.80;;;;;;;16.68;56.82;98255.66;4487645;32;20473;-80
2022/11/07 02:55:11;;;;;;;21.33;8.85;;;;;;;15.89;58.47;98262.28;4487683;31;20118;-79
2022/11/07 02:57:38;;;;;;;22.85;9.10;;;;;;;16.37;57.67;98269.75;4487914;32;20110;-79
2022/11/07 03:00:08;;;;;;;18.08;8.60;;;;;;;16.18;57.95;98264.88;4487359;31;20495;-79
2022/11/07 03:02:35;;;;;;;21.10;8.57;;;;;;;16.45;57.55;98262.31;4487839;31;20081;-79
2022/11/07 03:05:03;;;;;;;20.08;8.63;;;;;;;16.47;57.35;98258.66;4487646;31;20171;-79
2022/11/07 03:07:30;;;;;;;17.60;7.30;;;;;;;16.03;58.85;98258.00;4487644;31;20435;-79
2022/11/07 03:09:56;;;;;;;16.98;7.90;;;;;;;15.10;63.49;98248.81;4487801;31;20756;-79
2022/11/07 03:12:23;;;;;;;18.75;7.95;;;;;;;15.58;63.12;98249.44;4487729;31;20089;-79
2022/11/07 03:14:50;;;;;;;16.98;7.53;;;;;;;15.12;64.71;98240.91;4487372;32;20101;-79
2022/11/07 03:17:17;;;;;;;16.85;6.87;;;;;;;16.40;59.86;98243.53;4487861;31;20103;-79
2022/11/07 03:19:44;;;;;;;20.52;8.25;;;;;;;15.66;61.89;98249.00;4487627;32;20081;-79
2022/11/07 03:22:11;;;;;;;20.50;7.75;;;;;;;15.89;62.21;98261.47;4487450;31;20088;-80
2022/11/07 03:24:38;;;;;;;22.67;8.52;;;;;;;14.96;64.40;98264.31;4486274;32;20105;-79
2022/11/07 03:27:04;;;;;;;20.60;9.38;;;;;;;13.90;66.47;98259.69;4487721;31;20084;-79
2022/11/07 03:29:32;;;;;;;23.87;8.60;;;;;;;12.81;69.86;98267.84;4487279;31;20148;-79
2022/11/07 03:31:59;;;;;;;23.87;8.65;;;;;;;13.35;67.51;98279.03;4487571;31;20084;-79
2022/11/07 03:34:26;;;;;;;19.92;8.75;;;;;;;14.80;61.23;98276.53;4487323;31;20421;-78
2022/11/07 03:36:52;;;;;;;19.73;8.88;;;;;;;15.24;59.46;98276.59;4487702;31;20134;-79
2022/11/07 03:39:19;;;;;;;18.85;8.48;;;;;;;14.65;61.38;98276.44;4487704;31;20095;-79
2022/11/07 03:41:51;;;;;;;22.37;9.48;;;;;;;14.85;60.79;98277.09;4487139;31;20068;-79
2022/11/07 03:44:18;;;;;;;23.38;9.20;;;;;;;15.26;59.24;98279.91;4487416;31;20101;-79
2022/11/07 03:46:45;;;;;;;19.27;8.68;;;;;;;15.13;59.58;98285.00;4487642;31;20123;-79
2022/11/07 03:49:12;;;;;;;25.25;8.38;;;;;;;15.05;59.53;98282.81;4487070;31;20427;-79
2022/11/07 03:51:39;;;;;;;24.08;7.97;;;;;;;15.39;58.56;98295.63;4487481;31;20081;-79
2022/11/07 03:54:06;;;;;;;18.92;7.55;;;;;;;15.80;57.45;98301.87;4487559;31;20107;-79
2022/11/07 03:56:32;;;;;;;22.90;9.60;;;;;;;15.60;57.66;98297.84;4487115;31;20083;-79
2022/11/07 03:58:59;;;;;;;18.75;7.82;;;;;;;16.27;54.95;98295.56;4487536;31;20151;-79
2022/11/07 04:01:26;;;;;;;19.02;7.78;;;;;;;16.31;55.58;98291.00;4487442;31;20189;-79
2022/11/07 04:03:53;;;;;;;19.15;8.02;;;;;;;16.29;55.64;98301.50;4486980;31;20151;-79
2022/11/07 04:06:22;;;;;;;16.33;7.80;;;;;;;15.96;56.73;98299.19;4487327;32;20087;-79
2022/11/07 04:08:49;;;;;;;17.95;7.47;;;;;;;15.46;58.00;98300.41;4487426;31;20081;-79
2022/11/07 04:19:32;;;;;;;18.00;7.93;;;;;;;15.66;55.89;98319.25;4487388;32;20413;-79
2022/11/07 04:21:58;;;;;;;17.90;6.93;;;;;;;15.56;56.57;98318.91;4487301;32;20077;-79
2022/11/07 04:24:25;;;;;;;23.20;7.40;;;;;;;14.95;58.07;98322.41;4486718;31;20093;-79
2022/11/07 04:29:38;;;;;;;20.17;7.75;;;;;;;14.81;60.30;98337.94;4487055;31;20084;-79
2022/11/07 04:32:04;;;;;;;;;;;;;;;14.39;61.98;98347.09;4487187;31;20103;-79
2022/11/07 04:34:31;;;;;;;18.52;7.25;;;;;;;14.09;62.46;98347.78;4487126;32;19991;-79
2022/11/07 04:36:58;;;;;;;19.85;7.47;;;;;;;13.97;63.17;98353.63;4487195;31;20096;-79
2022/11/07 04:39:25;;;;;;;22.75;8.52;;;;;;;13.22;65.40;98339.22;4486711;31;20112;-79
2022/11/07 04:41:52;;;;;;;19.40;7.75;;;;;;;13.96;63.02;98333.78;4487019;31;20111;-79
2022/11/07 04:44:19;;;;;;;19.58;7.90;;;;;;;13.92;62.85;98321.88;4486877;31;20084;-79
2022/11/07 04:46:46;;;;;;;20.35;8.77;;;;;;;13.90;62.92;98319.38;4486803;31;20092;-79
2022/11/07 04:49:14;;;;;;;22.75;7.87;;;;;;;14.53;61.49;98321.25;4486854;31;20084;-79
2022/11/07 04:51:41;;;;;;;20.45;7.93;;;;;;;14.63;61.48;98319.84;4486568;31;20133;-79
2022/11/07 04:54:15;;;;;;;19.80;8.10;;;;;;;15.19;59.90;98330.56;4486208;31;20096;-79
2022/11/07 04:56:42;;;;;;;19.40;8.02;;;;;;;14.99;60.31;98324.78;4485832;32;20100;-79
2022/11/07 04:59:09;;;;;;;19.23;7.37;;;;;;;15.19;59.50;98333.19;4486637;31;20148;-79
2022/11/07 05:01:35;;;;;;;18.95;7.75;;;;;;;14.97;59.58;98328.34;4486661;32;20446;-79
2022/11/07 05:04:02;;;;;;;21.00;8.25;;;;;;;14.51;61.79;98328.28;4486605;31;20499;-79
2022/11/07 05:06:33;;;;;;;20.67;7.85;;;;;;;14.13;65.08;98325.94;4486266;31;20088;-79
2022/11/07 05:09:01;;;;;;;21.73;7.70;;;;;;;13.85;65.35;98323.13;4485593;32;20088;-79
2022/11/07 05:11:28;;;;;;;21.77;9.05;;;;;;;14.13;64.39;98330.28;4486539;32;20107;-79
2022/11/07 05:13:54;;;;;;;;;;;;;;;14.04;66.06;98336.81;4486702;31;20103;-79
2022/11/07 05:16:21;;;;;;;18.05;7.57;;;;;;;14.55;62.94;98345.38;4486568;31;20012;-79
2022/11/07 05:18:48;;;;;;;21.92;7.95;;;;;;;15.16;60.52;98352.38;4486608;31;20085;-79
2022/11/07 05:21:15;;;;;;;18.17;8.07;;;;;;;14.72;61.83;98353.09;4486175;31;20107;-79
2022/11/07 05:23:42;;;;;;;19.77;8.38;;;;;;;14.86;61.39;98354.09;4486399;31;20104;-79
2022/11/07 05:26:09;;;;;;;20.48;7.10;;;;;;;15.03;60.97;98360.03;4486295;31;20100;-79
2022/11/07 05:28:36;;;;;;;16.12;7.55;;;;;;;15.24;59.82;98367.56;4486202;31;20102;-79
2022/11/07 05:31:06;;;;;;;19.90;7.20;;;;;;;14.72;61.58;98367.84;4486100;31;20072;-79
2022/11/07 05:33:34;;;;;;;19.48;8.02;;;;;;;14.45;62.67;98373.59;4486408;31;20093;-79
2022/11/07 05:36:18;;;;;;;19.80;7.62;;;;;;;13.58;65.62;98366.84;4486088;31;20153;-79
2022/11/07 05:38:47;;;;;;;19.48;7.35;;;;;;;13.63;66.43;98371.81;4486370;31;20077;-79
2022/11/07 05:41:17;;;;;;;16.25;7.20;;;;;;;13.46;67.36;98373.47;4485844;31;20081;-79
2022/11/07 05:43:44;;;;;;;19.90;7.55;;;;;;;13.85;65.72;98367.22;4486164;31;20107;-79
2022/11/07 05:46:11;;;;;;;17.98;7.57;;;;;;;13.90;65.14;98373.84;4486238;31;20138;-79
2022/11/07 05:48:38;;;;;;;18.25;7.35;;;;;;;13.69;65.70;98390.47;4485871;31;20085;-79
2022/11/07 05:51:06;;;;;;;19.23;7.82;;;;;;;13.19;68.08;98392.97;4486039;32;20103;-79
2022/11/07 05:53:33;;;;;;;22.05;8.18;;;;;;;13.17;68.04;98387.81;4485884;31;20234;-79
2022/11/07 05:56:00;;;;;;;19.92;7.65;;;;;;;12.72;70.56;98395.97;4485546;31;20119;-79
2022/11/07 05:58:27;;;;;;;23.23;8.18;;;;;;;12.53;71.67;98402.88;4486086;31;20080;-79
2022/11/07 06:00:59;;;;;;;22.58;8.23;;;;;;;12.86;71.06;98391.00;4485985;31;20079;-79
2022/11/07 06:03:26;;;;;;;24.33;7.95;;;;;;;12.81;71.41;98405.06;4485815;31;20100;-79
2022/11/07 06:05:53;;;;;;;18.95;7.85;;;;;;;13.00;70.87;98403.31;4486045;31;20096;-79
2022/11/07 06:08:20;;;;;;;21.08;9.05;;;;;;;12.50;73.47;98410.81;4488334;31;20080;-79
2022/11/07 06:10:47;;;;;;;20.80;8.55;;;;;;;12.74;72.49;98407.09;4487892;31;20088;-79
2022/11/07 06:13:15;;;;;;;20.33;8.50;;;;;;;12.64;72.18;98417.03;4488298;31;20111;-79
2022/11/07 06:15:44;;;;;;;20.60;7.90;;;;;;;13.55;69.85;98419.69;4487862;31;20100;-80
2022/11/07 06:18:13;;;;;;;21.17;8.25;;;;;;;14.10;67.80;98418.69;4488283;31;20085;-79
2022/11/07 06:20:40;;;;;;;19.23;7.53;;;;;;;14.35;66.57;98416.50;4488118;31;20503;-80
2022/11/07 06:23:07;;;;;;;20.92;8.30;;;;;;;14.26;67.30;98422.19;4487784;31;20097;-79
2022/11/07 06:25:35;;;;;;;19.50;8.50;;;;;;;14.72;65.81;98423.22;4488069;31;20101;-79
2022/11/07 06:28:04;;;;;;;19.50;7.87;;;;;;;15.01;64.30;98428.63;4488070;31;20137;-79
2022/11/07 06:30:31;;;;;;;19.92;8.35;;;;;;;15.13;63.93;98435.72;4487541;31;20076;-79
2022/11/07 06:33:00;;;;;;;22.52;8.00;;;;;;;14.71;65.63;98439.72;4488083;31;20096;-79
2022/11/07 06:35:28;;;;;;;20.35;8.25;;;;;;;14.58;67.01;98435.28;4487960;31;20096;-79
2022/11/07 06:37:55;;;;;;;17.98;7.82;;;;;;;14.87;66.19;98444.09;4487780;32;20095;-79
2022/11/07 06:40:22;;;;;;;19.65;8.02;;;;;;;15.41;63.35;98448.03;4487996;31;20430;-79
2022/11/07 06:42:49;;;;;;;20.92;7.87;;;;;;;15.49;63.41;98451.03;4487877;31;20217;-79
2022/11/07 06:45:16;;;;;;;20.88;7.68;;;;;;;15.03;65.05;98455.34;4487445;31;20153;-80
2022/11/07 06:47:43;;;;;;;19.23;7.93;;;;;;;14.96;66.05;98459.19;4488021;31;20451;-79
2022/11/07 06:50:10;;;;;;;20.45;7.50;;;;;;;15.51;64.19;98458.75;4486661;32;20111;-80
2022/11/07 06:52:37;;;;;;;24.33;8.25;;;;;;;15.22;65.33;98461.22;4487457;31;20142;-80
2022/11/07 06:55:04;;;;;;;22.35;7.68;;;;;;;14.85;67.20;98458.94;4486719;32;20124;-80
2022/11/07 06:57:31;;;;;;;19.20;7.57;;;;;;;14.90;66.80;98467.34;4487852;31;20076;-80
2022/11/07 06:59:58;;;;;;;19.77;8.10;;;;;;;15.67;63.87;98476.97;4487472;31;20071;-80
2022/11/07 07:02:25;;;;;;;21.77;8.40;;;;;;;15.58;64.83;98480.91;4487819;32;20096;-80
2022/11/07 07:05:12;;;;;;;23.33;8.48;;;;;;;15.64;63.81;98485.81;4487601;32;20096;-80
2022/11/07 07:07:45;;;;;;;20.92;8.07;;;;;;;15.82;63.48;98482.13;4487702;31;20152;-80
2022/11/07 07:10:12;;;;;;;21.83;8.00;;;;;;;15.91;62.52;98489.41;4487699;32;20103;-80
2022/11/07 07:12:39;;;;;;;18.70;7.82;;;;;;;15.80;63.79;98496.16;4487456;31;20153;-80
2022/11/07 07:15:07;;;;;;;20.02;8.48;;;;;;;16.00;62.25;98497.63;4487682;31;20478;-81
2022/11/07 07:17:34;;;;;;;17.02;7.53;;;;;;;15.77;63.07;98501.56;4488803;31;20084;-80
2022/11/07 07:20:01;;;;;;;19.60;7.80;;;;;;;15.26;64.23;98509.50;4487951;31;20099;-82
2022/11/07 07:22:27;;;;;;;22.23;7.87;;;;;;;15.70;63.33;98508.00;4488261;31;20100;-80
2022/11/07 07:24:54;;;;;;;19.12;8.50;;;;;;;14.85;65.84;98503.09;4487549;31;20096;-80
2022/11/07 07:27:21;;;;;;;19.23;8.00;;;;;;;14.99;66.50;98505.78;4487328;31;20080;-81
2022/11/07 07:29:49;;;;;;;19.42;8.23;;;;;;;14.40;68.81;98500.19;4488110;31;20084;-79
2022/11/07 07:32:16;;;;;;;20.40;7.95;;;;;;;14.76;67.65;98502.66;4487673;31;20089;-80
2022/11/07 07:34:43;;;;;;;18.70;7.37;;;;;;;14.18;70.63;98489.22;4487347;31;20092;-79
2022/11/07 07:37:10;;;;;;;23.42;7.53;;;;;;;14.36;70.42;98496.06;4487693;31;20081;-79
2022/11/07 07:39:36;;;;;;;16.42;7.75;;;;;;;14.12;70.54;98495.53;4487424;31;20383;-80
2022/11/07 07:42:03;;;;;;;17.05;7.18;;;;;;;14.90;68.67;98498.50;4487301;31;20096;-82
2022/11/07 07:44:30;;;;;;;18.35;6.80;;;;;;;15.11;66.94;98502.56;4487460;31;20137;-79
2022/11/07 07:46:57;;;;;;;17.27;7.03;;;;;;;15.50;65.46;98491.72;4487231;31;20080;-79
2022/11/07 07:49:24;;;;;;;19.05;7.32;;;;;;;15.66;64.63;98496.12;4486483;32;20157;-80
2022/11/07 07:51:51;;;;;;;20.92;7.40;;;;;;;15.81;64.39;98501.28;4487424;31;20085;-80
2022/11/07 07:54:18;;;;;;;16.58;6.85;;;;;;;15.69;64.65;98495.94;4487085;31;20093;-79
2022/11/07 07:56:45;;;;;;;20.52;7.37;;;;;;;15.78;63.67;98493.66;4487456;31;20443;-79
2022/11/07 07:59:11;;;;;;;17.08;6.45;;;;;;;15.41;65.17;98483.59;4487484;31;20119;-79
2022/11/07 08:01:38;;;;;;;18.52;7.18;;;;;;;15.73;64.22;98493.06;4487081;31;20097;-80
2022/11/07 08:04:05;;;;;;;15.40;6.53;;;;;;;15.60;65.14;98492.09;4487531;31;20084;-80
2022/11/07 08:06:34;;;;;;;14.68;6.25;;;;;;;15.34;64.92;98488.31;4487444;31;20084;-80
2022/11/07 08:09:01;;;;;;;16.65;6.75;;;;;;;15.16;65.26;98492.75;4485913;32;20094;-80
2022/11/07 08:11:27;;;;;;;16.25;6.60;;;;;;;15.03;66.20;98494.34;4487237;31;20101;-79
2022/11/07 08:13:54;;;;;;;15.30;6.45;;;;;;;15.15;65.54;98496.25;4487444;31;20084;-80
2022/11/07 08:16:26;;;;;;;15.00;7.18;;;;;;;15.23;64.94;98493.25;4487071;32;20080;-80
2022/11/07 08:18:53;;;;;;;17.65;6.37;;;;;;;15.20;64.27;98494.25;4487365;31;20102;-80
2022/11/07 08:21:20;;;;;;;14.57;6.30;;;;;;;15.22;64.37;98492.41;4487164;31;20104;-80
2022/11/07 08:23:48;;;;;;;15.25;6.40;;;;;;;15.64;62.79;98503.19;4486985;31;20088;-80
2022/11/07 08:26:15;;;;;;;17.77;6.10;;;;;;;15.72;62.17;98500.97;4486874;32;20092;-79
2022/11/07 08:28:41;;;;;;;14.77;6.28;;;;;;;15.75;61.98;98508.59;4486175;31;20517;-80
2022/11/07 08:31:10;;;;;;;17.60;6.60;;;;;;;15.86;61.67;98506.25;4486332;31;20100;-81
2022/11/07 08:33:38;;;;;;;16.73;6.28;;;;;;;15.91;61.76;98506.81;4485903;32;20134;-82
2022/11/07 08:36:06;;;;;;;19.70;6.37;;;;;;;15.71;63.25;98504.47;4486682;31;20092;-82
2022/11/07 08:38:34;;;;;;;15.95;6.80;;;;;;;15.00;65.17;98505.72;4487021;31;20080;-81
2022/11/07 08:41:01;;;;;;;17.55;6.60;;;;;;;15.49;63.16;98497.00;4486988;31;20111;-81
2022/11/07 08:43:28;;;;;;;21.00;6.10;;;;;;;16.05;62.14;98511.22;4485619;32;20100;-83
2022/11/07 08:45:55;;;;;;;14.57;6.47;;;;;;;16.29;60.33;98507.19;4486659;31;20145;-82
2022/11/07 08:48:22;;;;;;;13.70;6.00;;;;;;;15.56;62.43;98494.00;4486959;31;20136;-83
2022/11/07 08:50:53;;;;;;;15.98;5.62;;;;;;;15.95;62.73;98495.31;4486471;31;20280;-82
2022/11/07 08:53:21;;;;;;;15.93;6.32;;;;;;;16.32;61.06;98504.41;4485928;32;20108;-83
2022/11/07 08:55:48;;;;;;;12.88;5.80;;;;;;;16.13;61.38;98498.59;4485587;32;20454;-82
2022/11/07 08:58:15;;;;;;;12.88;5.10;;;;;;;16.39;60.80;98497.91;4486555;31;20076;-82
2022/11/07 09:00:43;;;;;;;18.00;5.85;;;;;;;16.81;59.02;98509.34;4486819;31;20104;-83
2022/11/07 09:03:13;;;;;;;15.68;5.90;;;;;;;16.49;60.08;98509.47;4485902;32;20123;-83
2022/11/07 09:06:00;;;;;;;11.38;5.18;;;;;;;16.81;59.29;98518.94;4485047;32;20422;-82
2022/11/07 09:08:27;;;;;;;13.75;5.00;;;;;;;17.38;56.59;98524.91;4486782;31;20095;-82
2022/11/07 09:10:54;;;;;;;14.23;4.90;;;;;;;17.67;55.79;98527.47;4486603;31;20160;-83
2022/11/07 09:13:21;;;;;;;14.50;5.25;;;;;;;18.28;54.17;98526.91;4487167;31;20085;-83
2022/11/07 09:15:47;;;;;;;15.40;5.18;;;;;;;18.46;53.07;98532.69;4486937;31;20152;-82
2022/11/07 09:18:18;;;;;;;13.07;5.05;;;;;;;18.31;53.49;98531.97;4486530;31;20084;-82
2022/11/07 09:20:45;;;;;;;12.45;5.57;;;;;;;18.71;52.34;98524.91;4484947;32;20187;-82
2022/11/07 09:23:12;;;;;;;16.60;5.90;;;;;;;18.82;52.38;98523.31;4486469;31;20104;-83
2022/11/07 09:25:39;;;;;;;13.88;4.90;;;;;;;19.01;51.75;98529.81;4485206;31;20092;-84
2022/11/07 09:28:06;;;;;;;14.15;5.40;;;;;;;19.24;51.44;98530.81;4486545;31;20081;-82
2022/11/07 09:30:33;;;;;;;10.82;4.80;;;;;;;19.17;52.33;98532.19;4486078;31;20443;-81
2022/11/07 09:33:00;;;;;;;12.80;5.10;;;;;;;19.67;50.66;98540.03;4485896;32;20093;-82
2022/11/07 09:35:27;;;;;;;13.93;5.90;;;;;;;19.83;50.75;98549.31;4485872;31;20153;-82
2022/11/07 09:37:54;;;;;;;11.85;4.97;;;;;;;19.72;51.03;98553.66;4486315;32;20098;-82
2022/11/07 09:40:29;;;;;;;16.08;6.22;;;;;;;19.34;51.97;98552.75;4486559;31;20089;-82
2022/11/07 09:43:02;;;;;;;16.48;5.60;;;;;;;19.41;52.54;98549.72;4487353;32;20149;-83
2022/11/07 09:45:30;;;;;;;12.25;5.10;;;;;;;19.58;52.87;98549.41;4486987;32;20149;-83
2022/11/07 09:48:00;;;;;;;13.23;5.75;;;;;;;19.50;53.02;98543.84;4486824;32;20076;-84
2022/11/07 09:50:35;;;;;;;12.45;4.95;;;;;;;19.23;54.00;98536.16;4487151;32;20127;-83
2022/11/07 09:53:26;;;;;;;12.60;4.95;;;;;;;19.34;53.61;98536.22;4487119;32;20109;-84
2022/11/07 09:55:56;;;;;;;15.60;6.05;;;;;;;18.55;55.82;98528.66;4486950;32;20084;-84
2022/11/07 09:58:32;;;;;;;15.05;5.70;;;;;;;19.06;55.07;98535.56;4488485;31;20076;-84
2022/11/07 10:01:04;;;;;;;14.23;6.20;;;;;;;18.19;57.83;98536.22;4486750;32;20101;-84
2022/11/07 10:03:36;;;;;;;15.35;5.68;;;;;;;18.62;56.21;98533.34;4487256;32;20116;-83
2022/11/07 10:06:28;;;;;;;15.25;5.12;;;;;;;19.47;53.60;98536.22;4486748;32;20092;-81
2022/11/07 10:09:16;;;;;;;13.80;5.55;;;;;;;18.81;54.73;98540.78;4486910;32;20079;-84
2022/11/07 10:12:16;;;;;;;13.55;5.45;;;;;;;18.40;55.80;98536.59;4487067;32;20501;-83
2022/11/07 10:14:53;;;;;;;13.07;5.65;;;;;;;17.98;58.29;98535.03;4487839;31;20124;-83
2022/11/07 10:17:30;;;;;;;12.88;4.97;;;;;;;18.41;57.29;98532.19;4488031;31;20606;-84
2022/11/07 10:20:02;;;;;;;12.02;5.80;;;;;;;17.50;60.81;98523.31;4488357;31;20137;-83
2022/11/07 10:22:45;;;;;;;13.77;5.50;;;;;;;18.22;58.32;98522.13;4486664;32;20104;-81
2022/11/07 10:25:21;;;;;;;13.50;5.35;;;;;;;17.91;58.46;98513.69;4488259;31;20435;-84
2022/11/07 10:28:06;;;;;;;12.63;5.30;;;;;;;17.67;59.78;98507.41;4488936;31;20140;-85
2022/11/07 10:30:33;;;;;;;13.52;5.53;;;;;;;17.87;59.06;98507.00;4487651;32;20080;-83
2022/11/07 10:33:26;;;;;;;12.88;5.45;;;;;;;18.05;58.05;98504.94;4488056;31;20157;-84
2022/11/07 10:36:02;;;;;;;13.95;5.72;;;;;;;18.49;56.13;98508.97;4465117;31;20481;-83
2022/11/07 10:38:31;;;;;;;14.55;5.57;;;;;;;18.50;57.17;98506.28;4487252;32;20084;-85
2022/11/07 10:40:58;;;;;;;12.48;5.07;;;;;;;18.32;57.39;98496.22;4488199;31;20628;-84
2022/11/07 10:43:35;;;;;;;14.55;5.95;;;;;;;18.77;55.55;98498.34;4487886;31;20093;-84
2022/11/07 10:46:04;;;;;;;13.80;5.80;;;;;;;18.85;55.91;98497.00;4486698;32;20750;-84
2022/11/07 10:48:32;;;;;;;11.60;5.30;;;;;;;18.85;55.68;98495.22;4487165;32;20437;-83
2022/11/07 10:50:58;;;;;;;14.13;6.30;;;;;;;19.36;53.40;98484.66;4488172;31;20427;-84
2022/11/07 10:53:26;;;;;;;13.82;5.43;;;;;;;18.84;55.10;98485.69;4487067;32;20104;-83
2022/11/07 10:55:54;;;;;;;13.85;5.30;;;;;;;19.23;53.27;98481.22;4491792;31;20097;-83
2022/11/07 10:58:24;;;;;;;13.82;5.72;;;;;;;18.63;54.58;98479.31;4494232;31;20084;-85
2022/11/07 11:01:07;;;;;;;12.68;5.50;;;;;;;19.11;54.58;98489.94;4490402;31;20085;-84
2022/11/07 11:03:43;;;;;;;13.73;5.53;;;;;;;19.49;52.85;98482.81;4487974;31;20092;-84
2022/11/07 11:06:17;;;;;;;12.50;5.00;;;;;;;19.62;51.92;98486.25;4487659;31;20127;-83
2022/11/07 11:08:45;;;;;;;12.68;4.70;;;;;;;19.63;51.98;98480.06;4487998;31;20096;-83
2022/11/07 11:11:36;;;;;;;12.32;5.18;;;;;;;19.87;49.67;98484.44;4487414;31;20080;-82
2022/11/07 11:14:11;;;;;;;14.40;4.82;;;;;;;20.34;48.56;98486.16;4487866;31;20088;-83
2022/11/07 11:16:41;;;;;;;11.40;4.45;;;;;;;20.60;45.92;98480.72;4486399;32;20123;-82
2022/11/07 11:19:21;;;;;;;11.48;4.78;;;;;;;20.21;46.82;98480.16;4485875;32;20155;-83
2022/11/07 11:21:49;;;;;;;13.05;4.80;;;;;;;20.22;48.21;98471.34;4487710;31;20069;-83
2022/11/07 11:24:31;;;;;;;11.75;4.60;;;;;;;20.12;48.46;98467.75;4487673;31;20091;-82
2022/11/07 11:27:02;;;;;;;13.73;5.53;;;;;;;20.59;47.02;98471.19;4487408;31;20111;-82
2022/11/07 11:29:39;;;;;;;12.43;5.45;;;;;;;20.26;48.40;98475.41;4486467;32;20123;-82
2022/11/07 11:32:20;;;;;;;11.82;5.12;;;;;;;19.67;49.54;98467.56;4487696;32;20080;-81
2022/11/07 11:35:22;;;;;;;12.70;5.15;;;;;;;20.03;49.16;98466.66;4486501;32;20439;-81
2022/11/07 11:37:56;;;;;;;11.50;4.97;;;;;;;20.41;48.30;98460.28;4487413;31;20473;-82
2022/11/07 11:40:24;;;;;;;12.18;5.03;;;;;;;20.83;46.60;98453.56;4487205;31;20479;-81
2022/11/07 11:42:59;;;;;;;13.13;5.05;;;;;;;20.96;45.76;98459.53;4486317;32;20099;-82
2022/11/07 11:45:26;;;;;;;14.35;5.18;;;;;;;20.90;45.66;98464.41;4486123;32;20510;-82
2022/11/07 11:48:24;;;;;;;12.93;4.62;;;;;;;20.68;45.85;98465.25;4487189;31;20103;-82